sensor_id;sensor_type;location;lat;lon;timestamp;P1;durP1;ratioP1;P2;durP2;ratioP2
45065;SDS011;30830;53.704;10.004;2024-01-30T00:01:40;8.20;;;6.78;;
45065;SDS011;30830;53.704;10.004;2024-01-30T00:04:06;10.60;;;7.07;;
45065;SDS011;30830;53.704;10.004;2024-01-30T00:06:32;10.60;;;7.68;;
45065;SDS011;30830;53.704;10.004;2024-01-30T00:08:57;9.93;;;6.22;;
45065;SDS011;30830;53.704;10.004;2024-01-30T00:11:23;9.57;;;6.75;;
45065;SDS011;30830;53.704;10.004;2024-01-30T00:13:50;10.85;;;7.00;;
45065;SDS011;30830;53.704;10.004;2024-01-30T00:16:23;12.05;;;7.88;;
45065;SDS011;30830;53.704;10.004;2024-01-30T00:18:52;12.45;;;8.25;;
45065;SDS011;30830;53.704;10.004;2024-01-30T00:21:18;11.45;;;7.40;;
45065;SDS011;30830;53.704;10.004;2024-01-30T00:23:44;10.05;;;6.95;;
45065;SDS011;30830;53.704;10.004;2024-01-30T00:26:10;12.25;;;7.45;;
45065;SDS011;30830;53.704;10.004;2024-01-30T00:28:42;10.38;;;6.38;;
45065;SDS011;30830;53.704;10.004;2024-01-30T00:31:08;10.80;;;6.70;;
45065;SDS011;30830;53.704;10.004;2024-01-30T00:33:37;8.68;;;6.22;;
45065;SDS011;30830;53.704;10.004;2024-01-30T00:36:07;9.68;;;7.07;;
45065;SDS011;30830;53.704;10.004;2024-01-30T00:38:34;8.52;;;6.05;;
45065;SDS011;30830;53.704;10.004;2024-01-30T00:40:59;8.40;;;6.38;;
45065;SDS011;30830;53.704;10.004;2024-01-30T00:43:26;9.20;;;6.80;;
45065;SDS011;30830;53.704;10.004;2024-01-30T00:45:52;9.75;;;6.13;;
45065;SDS011;30830;53.704;10.004;2024-01-30T00:48:18;8.10;;;6.53;;
45065;SDS011;30830;53.704;10.004;2024-01-30T00:50:44;8.68;;;6.35;;
45065;SDS011;30830;53.704;10.004;2024-01-30T00:53:09;10.75;;;7.30;;
45065;SDS011;30830;53.704;10.004;2024-01-30T00:55:36;7.20;;;6.07;;
45065;SDS011;30830;53.704;10.004;2024-01-30T00:58:01;9.27;;;6.18;;
45065;SDS011;30830;53.704;10.004;2024-01-30T01:00:28;9.60;;;6.43;;
45065;SDS011;30830;53.704;10.004;2024-01-30T01:02:57;9.18;;;5.80;;
45065;SDS011;30830;53.704;10.004;2024-01-30T01:05:23;8.25;;;6.57;;
45065;SDS011;30830;53.704;10.004;2024-01-30T01:07:48;8.40;;;5.70;;
45065;SDS011;30830;53.704;10.004;2024-01-30T01:10:14;8.32;;;5.97;;
45065;SDS011;30830;53.704;10.004;2024-01-30T01:12:41;9.15;;;6.35;;
45065;SDS011;30830;53.704;10.004;2024-01-30T01:15:07;9.38;;;7.30;;
45065;SDS011;30830;53.704;10.004;2024-01-30T01:17:34;7.82;;;6.10;;
45065;SDS011;30830;53.704;10.004;2024-01-30T01:20:01;10.05;;;6.45;;
45065;SDS011;30830;53.704;10.004;2024-01-30T01:22:27;8.27;;;5.97;;
45065;SDS011;30830;53.704;10.004;2024-01-30T01:24:52;7.22;;;6.22;;
45065;SDS011;30830;53.704;10.004;2024-01-30T01:27:18;9.90;;;6.95;;
45065;SDS011;30830;53.704;10.004;2024-01-30T01:29:43;8.77;;;6.32;;
45065;SDS011;30830;53.704;10.004;2024-01-30T01:32:10;8.38;;;6.00;;
45065;SDS011;30830;53.704;10.004;2024-01-30T01:34:35;9.85;;;6.63;;
45065;SDS011;30830;53.704;10.004;2024-01-30T01:37:01;7.40;;;6.07;;
45065;SDS011;30830;53.704;10.004;2024-01-30T01:39:27;9.63;;;6.38;;
45065;SDS011;30830;53.704;10.004;2024-01-30T01:41:52;11.15;;;6.88;;
45065;SDS011;30830;53.704;10.004;2024-01-30T01:44:18;9.38;;;6.32;;
45065;SDS011;30830;53.704;10.004;2024-01-30T01:46:44;9.23;;;6.75;;
45065;SDS011;30830;53.704;10.004;2024-01-30T01:49:10;10.75;;;6.40;;
45065;SDS011;30830;53.704;10.004;2024-01-30T01:51:36;10.75;;;6.15;;
45065;SDS011;30830;53.704;10.004;2024-01-30T01:54:05;8.13;;;5.85;;
45065;SDS011;30830;53.704;10.004;2024-01-30T01:56:32;8.70;;;5.82;;
45065;SDS011;30830;53.704;10.004;2024-01-30T01:59:05;7.55;;;6.18;;
45065;SDS011;30830;53.704;10.004;2024-01-30T02:01:38;9.77;;;6.05;;
45065;SDS011;30830;53.704;10.004;2024-01-30T02:04:06;8.15;;;6.45;;
45065;SDS011;30830;53.704;10.004;2024-01-30T02:06:33;7.72;;;5.70;;
45065;SDS011;30830;53.704;10.004;2024-01-30T02:09:02;8.25;;;6.47;;
45065;SDS011;30830;53.704;10.004;2024-01-30T02:11:29;7.22;;;5.63;;
45065;SDS011;30830;53.704;10.004;2024-01-30T02:13:55;8.52;;;6.28;;
45065;SDS011;30830;53.704;10.004;2024-01-30T02:16:21;7.40;;;6.60;;
45065;SDS011;30830;53.704;10.004;2024-01-30T02:18:46;7.22;;;5.90;;
45065;SDS011;30830;53.704;10.004;2024-01-30T02:21:16;9.55;;;5.93;;
45065;SDS011;30830;53.704;10.004;2024-01-30T02:23:43;8.02;;;5.68;;
45065;SDS011;30830;53.704;10.004;2024-01-30T02:26:11;7.38;;;5.47;;
45065;SDS011;30830;53.704;10.004;2024-01-30T02:28:37;6.82;;;5.72;;
45065;SDS011;30830;53.704;10.004;2024-01-30T02:31:03;7.47;;;5.47;;
45065;SDS011;30830;53.704;10.004;2024-01-30T02:33:29;9.93;;;6.18;;
45065;SDS011;30830;53.704;10.004;2024-01-30T02:35:55;7.70;;;5.50;;
45065;SDS011;30830;53.704;10.004;2024-01-30T02:38:20;6.93;;;5.70;;
45065;SDS011;30830;53.704;10.004;2024-01-30T02:40:46;6.97;;;5.63;;
45065;SDS011;30830;53.704;10.004;2024-01-30T02:43:11;8.27;;;5.18;;
45065;SDS011;30830;53.704;10.004;2024-01-30T02:45:37;6.55;;;5.38;;
45065;SDS011;30830;53.704;10.004;2024-01-30T02:48:03;7.35;;;5.65;;
45065;SDS011;30830;53.704;10.004;2024-01-30T02:50:28;7.40;;;5.65;;
45065;SDS011;30830;53.704;10.004;2024-01-30T02:52:54;9.18;;;5.50;;
45065;SDS011;30830;53.704;10.004;2024-01-30T02:55:20;8.55;;;5.32;;
45065;SDS011;30830;53.704;10.004;2024-01-30T02:57:45;7.68;;;6.00;;
45065;SDS011;30830;53.704;10.004;2024-01-30T03:00:11;7.20;;;4.70;;
45065;SDS011;30830;53.704;10.004;2024-01-30T03:02:37;11.35;;;5.95;;
45065;SDS011;30830;53.704;10.004;2024-01-30T03:05:03;7.57;;;5.53;;
45065;SDS011;30830;53.704;10.004;2024-01-30T03:07:29;6.10;;;5.50;;
45065;SDS011;30830;53.704;10.004;2024-01-30T03:09:55;8.82;;;5.70;;
45065;SDS011;30830;53.704;10.004;2024-01-30T03:12:21;6.30;;;5.15;;
45065;SDS011;30830;53.704;10.004;2024-01-30T03:14:46;6.95;;;5.65;;
45065;SDS011;30830;53.704;10.004;2024-01-30T03:17:12;7.55;;;5.68;;
45065;SDS011;30830;53.704;10.004;2024-01-30T03:19:38;7.78;;;5.53;;
45065;SDS011;30830;53.704;10.004;2024-01-30T03:22:04;7.65;;;5.95;;
45065;SDS011;30830;53.704;10.004;2024-01-30T03:24:30;9.70;;;5.82;;
45065;SDS011;30830;53.704;10.004;2024-01-30T03:26:55;8.50;;;5.57;;
45065;SDS011;30830;53.704;10.004;2024-01-30T03:29:21;8.15;;;5.18;;
45065;SDS011;30830;53.704;10.004;2024-01-30T03:31:46;6.28;;;5.45;;
45065;SDS011;30830;53.704;10.004;2024-01-30T03:34:12;6.68;;;5.60;;
45065;SDS011;30830;53.704;10.004;2024-01-30T03:36:38;9.32;;;5.72;;
45065;SDS011;30830;53.704;10.004;2024-01-30T03:39:03;7.90;;;5.03;;
45065;SDS011;30830;53.704;10.004;2024-01-30T03:41:29;5.53;;;4.82;;
45065;SDS011;30830;53.704;10.004;2024-01-30T03:43:55;9.15;;;5.40;;
45065;SDS011;30830;53.704;10.004;2024-01-30T03:46:20;5.90;;;4.45;;
45065;SDS011;30830;53.704;10.004;2024-01-30T03:48:46;8.38;;;5.13;;
45065;SDS011;30830;53.704;10.004;2024-01-30T03:51:11;8.73;;;5.00;;
45065;SDS011;30830;53.704;10.004;2024-01-30T03:53:39;7.22;;;5.00;;
45065;SDS011;30830;53.704;10.004;2024-01-30T03:56:06;11.43;;;6.05;;
45065;SDS011;30830;53.704;10.004;2024-01-30T03:58:32;9.02;;;6.28;;
45065;SDS011;30830;53.704;10.004;2024-01-30T04:00:58;8.13;;;6.18;;
45065;SDS011;30830;53.704;10.004;2024-01-30T04:03:23;7.45;;;5.13;;
45065;SDS011;30830;53.704;10.004;2024-01-30T04:05:51;8.98;;;5.45;;
45065;SDS011;30830;53.704;10.004;2024-01-30T04:08:17;7.80;;;5.97;;
45065;SDS011;30830;53.704;10.004;2024-01-30T04:10:43;7.32;;;5.63;;
45065;SDS011;30830;53.704;10.004;2024-01-30T04:13:08;8.23;;;5.28;;
45065;SDS011;30830;53.704;10.004;2024-01-30T04:15:34;7.22;;;5.60;;
45065;SDS011;30830;53.704;10.004;2024-01-30T04:18:00;7.80;;;5.43;;
45065;SDS011;30830;53.704;10.004;2024-01-30T04:20:25;7.75;;;6.18;;
45065;SDS011;30830;53.704;10.004;2024-01-30T04:22:51;8.77;;;5.55;;
45065;SDS011;30830;53.704;10.004;2024-01-30T04:25:16;9.20;;;5.68;;
45065;SDS011;30830;53.704;10.004;2024-01-30T04:27:42;8.35;;;6.07;;
45065;SDS011;30830;53.704;10.004;2024-01-30T04:30:07;7.97;;;5.57;;
45065;SDS011;30830;53.704;10.004;2024-01-30T04:32:34;8.00;;;6.05;;
45065;SDS011;30830;53.704;10.004;2024-01-30T04:35:00;7.82;;;5.95;;
45065;SDS011;30830;53.704;10.004;2024-01-30T04:37:26;9.93;;;6.30;;
45065;SDS011;30830;53.704;10.004;2024-01-30T04:39:51;9.07;;;5.90;;
45065;SDS011;30830;53.704;10.004;2024-01-30T04:42:17;7.82;;;5.75;;
45065;SDS011;30830;53.704;10.004;2024-01-30T04:44:42;9.02;;;6.15;;
45065;SDS011;30830;53.704;10.004;2024-01-30T04:47:08;7.70;;;5.45;;
45065;SDS011;30830;53.704;10.004;2024-01-30T04:49:36;6.68;;;5.53;;
45065;SDS011;30830;53.704;10.004;2024-01-30T04:52:01;8.88;;;5.35;;
45065;SDS011;30830;53.704;10.004;2024-01-30T04:54:27;8.45;;;5.85;;
45065;SDS011;30830;53.704;10.004;2024-01-30T04:56:53;9.02;;;6.30;;
45065;SDS011;30830;53.704;10.004;2024-01-30T04:59:18;7.15;;;5.75;;
45065;SDS011;30830;53.704;10.004;2024-01-30T05:01:44;7.38;;;5.40;;
45065;SDS011;30830;53.704;10.004;2024-01-30T05:04:10;8.38;;;5.70;;
45065;SDS011;30830;53.704;10.004;2024-01-30T05:06:36;10.15;;;5.90;;
45065;SDS011;30830;53.704;10.004;2024-01-30T05:09:02;8.45;;;6.05;;
45065;SDS011;30830;53.704;10.004;2024-01-30T05:11:29;8.85;;;6.15;;
45065;SDS011;30830;53.704;10.004;2024-01-30T05:13:55;8.52;;;6.65;;
45065;SDS011;30830;53.704;10.004;2024-01-30T05:16:20;8.30;;;6.57;;
45065;SDS011;30830;53.704;10.004;2024-01-30T05:18:46;9.50;;;6.63;;
45065;SDS011;30830;53.704;10.004;2024-01-30T05:21:12;9.77;;;6.25;;
45065;SDS011;30830;53.704;10.004;2024-01-30T05:23:37;8.30;;;6.15;;
45065;SDS011;30830;53.704;10.004;2024-01-30T05:26:03;11.40;;;7.18;;
45065;SDS011;30830;53.704;10.004;2024-01-30T05:28:29;9.45;;;6.47;;
45065;SDS011;30830;53.704;10.004;2024-01-30T05:30:55;10.88;;;7.60;;
45065;SDS011;30830;53.704;10.004;2024-01-30T05:33:21;8.63;;;6.60;;
45065;SDS011;30830;53.704;10.004;2024-01-30T05:35:46;8.95;;;6.43;;
45065;SDS011;30830;53.704;10.004;2024-01-30T05:38:13;8.70;;;6.53;;
45065;SDS011;30830;53.704;10.004;2024-01-30T05:40:40;9.98;;;6.50;;
45065;SDS011;30830;53.704;10.004;2024-01-30T05:43:05;14.63;;;7.43;;
45065;SDS011;30830;53.704;10.004;2024-01-30T05:45:32;11.68;;;7.22;;
45065;SDS011;30830;53.704;10.004;2024-01-30T05:47:59;10.65;;;7.75;;
45065;SDS011;30830;53.704;10.004;2024-01-30T05:50:24;9.40;;;6.75;;
45065;SDS011;30830;53.704;10.004;2024-01-30T05:52:51;11.57;;;7.75;;
45065;SDS011;30830;53.704;10.004;2024-01-30T05:55:16;8.95;;;6.97;;
45065;SDS011;30830;53.704;10.004;2024-01-30T05:57:42;10.57;;;8.13;;
45065;SDS011;30830;53.704;10.004;2024-01-30T06:00:08;12.07;;;7.60;;
45065;SDS011;30830;53.704;10.004;2024-01-30T06:02:33;14.45;;;8.05;;
45065;SDS011;30830;53.704;10.004;2024-01-30T06:04:59;9.00;;;7.13;;
45065;SDS011;30830;53.704;10.004;2024-01-30T06:07:25;10.55;;;7.72;;
45065;SDS011;30830;53.704;10.004;2024-01-30T06:09:50;10.18;;;7.32;;
45065;SDS011;30830;53.704;10.004;2024-01-30T06:12:16;13.05;;;7.93;;
45065;SDS011;30830;53.704;10.004;2024-01-30T06:14:41;12.45;;;8.43;;
45065;SDS011;30830;53.704;10.004;2024-01-30T06:17:07;11.32;;;8.57;;
45065;SDS011;30830;53.704;10.004;2024-01-30T06:19:33;12.30;;;7.60;;
45065;SDS011;30830;53.704;10.004;2024-01-30T06:21:59;9.77;;;7.30;;
45065;SDS011;30830;53.704;10.004;2024-01-30T06:24:25;10.38;;;7.88;;
45065;SDS011;30830;53.704;10.004;2024-01-30T06:26:50;11.15;;;8.00;;
45065;SDS011;30830;53.704;10.004;2024-01-30T06:29:16;10.32;;;7.32;;
45065;SDS011;30830;53.704;10.004;2024-01-30T06:31:42;13.75;;;8.35;;
45065;SDS011;30830;53.704;10.004;2024-01-30T06:34:08;10.45;;;7.78;;
45065;SDS011;30830;53.704;10.004;2024-01-30T06:36:37;11.52;;;8.00;;
45065;SDS011;30830;53.704;10.004;2024-01-30T06:39:03;11.43;;;7.70;;
45065;SDS011;30830;53.704;10.004;2024-01-30T06:41:29;14.82;;;8.02;;
45065;SDS011;30830;53.704;10.004;2024-01-30T06:43:54;11.38;;;8.07;;
45065;SDS011;30830;53.704;10.004;2024-01-30T06:46:20;11.98;;;8.68;;
45065;SDS011;30830;53.704;10.004;2024-01-30T06:48:46;14.20;;;8.52;;
45065;SDS011;30830;53.704;10.004;2024-01-30T06:51:11;11.05;;;8.70;;
45065;SDS011;30830;53.704;10.004;2024-01-30T06:53:37;13.98;;;9.82;;
45065;SDS011;30830;53.704;10.004;2024-01-30T06:56:03;9.80;;;7.85;;
45065;SDS011;30830;53.704;10.004;2024-01-30T06:58:29;13.10;;;8.30;;
45065;SDS011;30830;53.704;10.004;2024-01-30T07:00:55;13.23;;;9.10;;
45065;SDS011;30830;53.704;10.004;2024-01-30T07:03:21;11.55;;;7.65;;
45065;SDS011;30830;53.704;10.004;2024-01-30T07:05:46;9.60;;;7.88;;
45065;SDS011;30830;53.704;10.004;2024-01-30T07:08:12;11.75;;;7.78;;
45065;SDS011;30830;53.704;10.004;2024-01-30T07:10:38;19.38;;;9.45;;
45065;SDS011;30830;53.704;10.004;2024-01-30T07:13:03;11.57;;;8.85;;
45065;SDS011;30830;53.704;10.004;2024-01-30T07:15:30;11.73;;;8.45;;
45065;SDS011;30830;53.704;10.004;2024-01-30T07:17:56;14.02;;;8.15;;
45065;SDS011;30830;53.704;10.004;2024-01-30T07:20:22;11.52;;;8.70;;
45065;SDS011;30830;53.704;10.004;2024-01-30T07:22:47;11.77;;;7.85;;
45065;SDS011;30830;53.704;10.004;2024-01-30T07:25:13;13.85;;;8.70;;
45065;SDS011;30830;53.704;10.004;2024-01-30T07:27:39;12.40;;;9.30;;
45065;SDS011;30830;53.704;10.004;2024-01-30T07:30:04;11.77;;;8.80;;
45065;SDS011;30830;53.704;10.004;2024-01-30T07:32:31;12.48;;;8.93;;
45065;SDS011;30830;53.704;10.004;2024-01-30T07:34:57;14.75;;;8.70;;
45065;SDS011;30830;53.704;10.004;2024-01-30T07:37:22;12.68;;;8.40;;
45065;SDS011;30830;53.704;10.004;2024-01-30T07:39:48;15.38;;;9.10;;
45065;SDS011;30830;53.704;10.004;2024-01-30T07:42:13;13.93;;;9.50;;
45065;SDS011;30830;53.704;10.004;2024-01-30T07:44:39;13.05;;;8.40;;
45065;SDS011;30830;53.704;10.004;2024-01-30T07:47:05;14.00;;;8.40;;
45065;SDS011;30830;53.704;10.004;2024-01-30T07:49:30;13.93;;;9.07;;
45065;SDS011;30830;53.704;10.004;2024-01-30T07:51:57;13.32;;;9.55;;
45065;SDS011;30830;53.704;10.004;2024-01-30T07:54:23;10.70;;;8.00;;
45065;SDS011;30830;53.704;10.004;2024-01-30T07:56:49;13.75;;;9.20;;
45065;SDS011;30830;53.704;10.004;2024-01-30T07:59:14;17.48;;;8.93;;
45065;SDS011;30830;53.704;10.004;2024-01-30T08:01:40;11.85;;;8.65;;
45065;SDS011;30830;53.704;10.004;2024-01-30T08:04:06;13.77;;;9.05;;
45065;SDS011;30830;53.704;10.004;2024-01-30T08:06:32;14.02;;;9.63;;
45065;SDS011;30830;53.704;10.004;2024-01-30T08:08:58;15.10;;;9.88;;
45065;SDS011;30830;53.704;10.004;2024-01-30T08:11:24;16.65;;;10.70;;
45065;SDS011;30830;53.704;10.004;2024-01-30T08:13:54;14.52;;;9.82;;
45065;SDS011;30830;53.704;10.004;2024-01-30T08:16:20;15.15;;;9.85;;
45065;SDS011;30830;53.704;10.004;2024-01-30T08:18:45;16.20;;;10.82;;
45065;SDS011;30830;53.704;10.004;2024-01-30T08:21:11;15.38;;;9.40;;
45065;SDS011;30830;53.704;10.004;2024-01-30T08:23:38;13.70;;;9.30;;
45065;SDS011;30830;53.704;10.004;2024-01-30T08:26:04;15.00;;;10.10;;
45065;SDS011;30830;53.704;10.004;2024-01-30T08:28:30;12.40;;;9.88;;
45065;SDS011;30830;53.704;10.004;2024-01-30T08:30:56;14.70;;;9.57;;
45065;SDS011;30830;53.704;10.004;2024-01-30T08:33:22;14.55;;;9.70;;
45065;SDS011;30830;53.704;10.004;2024-01-30T08:35:48;14.00;;;10.32;;
45065;SDS011;30830;53.704;10.004;2024-01-30T08:38:13;15.40;;;10.02;;
45065;SDS011;30830;53.704;10.004;2024-01-30T08:40:39;18.20;;;10.77;;
45065;SDS011;30830;53.704;10.004;2024-01-30T08:43:04;15.23;;;10.50;;
45065;SDS011;30830;53.704;10.004;2024-01-30T08:45:30;13.40;;;10.30;;
45065;SDS011;30830;53.704;10.004;2024-01-30T08:47:56;16.15;;;11.18;;
45065;SDS011;30830;53.704;10.004;2024-01-30T08:50:21;14.50;;;9.68;;
45065;SDS011;30830;53.704;10.004;2024-01-30T08:52:47;14.13;;;9.63;;
45065;SDS011;30830;53.704;10.004;2024-01-30T08:55:13;15.40;;;10.27;;
45065;SDS011;30830;53.704;10.004;2024-01-30T08:57:38;19.55;;;10.77;;
45065;SDS011;30830;53.704;10.004;2024-01-30T09:00:04;16.55;;;11.60;;
45065;SDS011;30830;53.704;10.004;2024-01-30T09:02:32;17.88;;;11.45;;
45065;SDS011;30830;53.704;10.004;2024-01-30T09:04:58;15.25;;;10.90;;
45065;SDS011;30830;53.704;10.004;2024-01-30T09:07:24;16.33;;;10.55;;
45065;SDS011;30830;53.704;10.004;2024-01-30T09:09:49;14.77;;;10.50;;
45065;SDS011;30830;53.704;10.004;2024-01-30T09:12:15;14.68;;;10.60;;
45065;SDS011;30830;53.704;10.004;2024-01-30T09:14:41;16.33;;;10.50;;
45065;SDS011;30830;53.704;10.004;2024-01-30T09:17:06;14.98;;;9.82;;
45065;SDS011;30830;53.704;10.004;2024-01-30T09:19:33;15.05;;;11.10;;
45065;SDS011;30830;53.704;10.004;2024-01-30T09:21:58;16.55;;;10.20;;
45065;SDS011;30830;53.704;10.004;2024-01-30T09:24:25;17.45;;;11.20;;
45065;SDS011;30830;53.704;10.004;2024-01-30T09:26:51;15.45;;;10.35;;
45065;SDS011;30830;53.704;10.004;2024-01-30T09:29:17;14.52;;;10.63;;
45065;SDS011;30830;53.704;10.004;2024-01-30T09:31:45;12.75;;;9.90;;
45065;SDS011;30830;53.704;10.004;2024-01-30T09:34:11;15.98;;;10.25;;
45065;SDS011;30830;53.704;10.004;2024-01-30T09:36:37;15.45;;;10.85;;
45065;SDS011;30830;53.704;10.004;2024-01-30T09:39:03;15.73;;;10.35;;
45065;SDS011;30830;53.704;10.004;2024-01-30T09:41:29;12.90;;;10.32;;
45065;SDS011;30830;53.704;10.004;2024-01-30T09:43:58;14.02;;;10.00;;
45065;SDS011;30830;53.704;10.004;2024-01-30T09:46:27;14.95;;;10.38;;
45065;SDS011;30830;53.704;10.004;2024-01-30T09:48:55;16.85;;;11.38;;
45065;SDS011;30830;53.704;10.004;2024-01-30T09:51:23;16.55;;;11.07;;
45065;SDS011;30830;53.704;10.004;2024-01-30T09:53:50;14.60;;;11.45;;
45065;SDS011;30830;53.704;10.004;2024-01-30T09:56:17;17.00;;;10.65;;
45065;SDS011;30830;53.704;10.004;2024-01-30T09:58:42;14.60;;;11.13;;
45065;SDS011;30830;53.704;10.004;2024-01-30T10:01:08;16.48;;;11.43;;
45065;SDS011;30830;53.704;10.004;2024-01-30T10:03:33;15.23;;;10.48;;
45065;SDS011;30830;53.704;10.004;2024-01-30T10:05:59;14.80;;;10.57;;
45065;SDS011;30830;53.704;10.004;2024-01-30T10:08:26;15.73;;;10.68;;
45065;SDS011;30830;53.704;10.004;2024-01-30T10:10:52;14.07;;;9.98;;
45065;SDS011;30830;53.704;10.004;2024-01-30T10:13:18;18.48;;;11.30;;
45065;SDS011;30830;53.704;10.004;2024-01-30T10:15:43;14.95;;;10.10;;
45065;SDS011;30830;53.704;10.004;2024-01-30T10:18:10;15.70;;;10.23;;
45065;SDS011;30830;53.704;10.004;2024-01-30T10:20:36;13.85;;;10.65;;
45065;SDS011;30830;53.704;10.004;2024-01-30T10:23:02;16.05;;;10.80;;
45065;SDS011;30830;53.704;10.004;2024-01-30T10:25:28;15.35;;;10.77;;
45065;SDS011;30830;53.704;10.004;2024-01-30T10:27:55;13.70;;;10.73;;
45065;SDS011;30830;53.704;10.004;2024-01-30T10:30:21;22.42;;;10.88;;
45065;SDS011;30830;53.704;10.004;2024-01-30T10:32:47;17.00;;;10.90;;
45065;SDS011;30830;53.704;10.004;2024-01-30T10:35:13;16.02;;;10.30;;
45065;SDS011;30830;53.704;10.004;2024-01-30T10:37:39;17.83;;;10.85;;
45065;SDS011;30830;53.704;10.004;2024-01-30T10:40:05;14.00;;;10.15;;
45065;SDS011;30830;53.704;10.004;2024-01-30T10:42:33;13.77;;;9.55;;
45065;SDS011;30830;53.704;10.004;2024-01-30T10:47:40;12.15;;;9.95;;
45065;SDS011;30830;53.704;10.004;2024-01-30T10:50:08;12.95;;;9.43;;
45065;SDS011;30830;53.704;10.004;2024-01-30T10:52:35;16.73;;;10.70;;
45065;SDS011;30830;53.704;10.004;2024-01-30T10:55:01;11.93;;;9.98;;
45065;SDS011;30830;53.704;10.004;2024-01-30T10:57:33;13.15;;;9.65;;
45065;SDS011;30830;53.704;10.004;2024-01-30T11:00:01;14.02;;;9.90;;
45065;SDS011;30830;53.704;10.004;2024-01-30T11:02:30;18.73;;;10.38;;
45065;SDS011;30830;53.704;10.004;2024-01-30T11:04:57;13.68;;;9.55;;
45065;SDS011;30830;53.704;10.004;2024-01-30T11:07:28;12.25;;;8.35;;
45065;SDS011;30830;53.704;10.004;2024-01-30T11:12:23;16.95;;;10.75;;
45065;SDS011;30830;53.704;10.004;2024-01-30T11:14:50;18.75;;;11.23;;
45065;SDS011;30830;53.704;10.004;2024-01-30T11:17:38;21.58;;;13.23;;
45065;SDS011;30830;53.704;10.004;2024-01-30T11:20:29;15.32;;;9.60;;
45065;SDS011;30830;53.704;10.004;2024-01-30T11:22:58;14.07;;;9.70;;
45065;SDS011;30830;53.704;10.004;2024-01-30T11:25:25;12.43;;;9.45;;
45065;SDS011;30830;53.704;10.004;2024-01-30T11:27:54;11.75;;;9.73;;
45065;SDS011;30830;53.704;10.004;2024-01-30T11:30:21;11.70;;;9.43;;
45065;SDS011;30830;53.704;10.004;2024-01-30T11:33:00;13.52;;;9.45;;
45065;SDS011;30830;53.704;10.004;2024-01-30T11:35:26;11.27;;;9.00;;
45065;SDS011;30830;53.704;10.004;2024-01-30T11:37:52;12.25;;;9.90;;
45065;SDS011;30830;53.704;10.004;2024-01-30T11:40:19;17.50;;;10.57;;
45065;SDS011;30830;53.704;10.004;2024-01-30T11:42:44;11.77;;;9.18;;
45065;SDS011;30830;53.704;10.004;2024-01-30T11:45:12;13.68;;;9.50;;
45065;SDS011;30830;53.704;10.004;2024-01-30T11:47:37;12.73;;;9.48;;
45065;SDS011;30830;53.704;10.004;2024-01-30T11:50:04;11.60;;;8.55;;
45065;SDS011;30830;53.704;10.004;2024-01-30T11:52:31;14.88;;;9.80;;
45065;SDS011;30830;53.704;10.004;2024-01-30T11:54:58;11.30;;;8.90;;
45065;SDS011;30830;53.704;10.004;2024-01-30T11:57:26;12.27;;;8.88;;
45065;SDS011;30830;53.704;10.004;2024-01-30T11:59:52;15.50;;;9.65;;
45065;SDS011;30830;53.704;10.004;2024-01-30T12:02:17;15.32;;;9.75;;
45065;SDS011;30830;53.704;10.004;2024-01-30T12:04:43;14.88;;;9.73;;
45065;SDS011;30830;53.704;10.004;2024-01-30T12:07:09;13.85;;;10.23;;
45065;SDS011;30830;53.704;10.004;2024-01-30T12:09:35;13.30;;;10.93;;
45065;SDS011;30830;53.704;10.004;2024-01-30T12:12:01;15.45;;;9.50;;
45065;SDS011;30830;53.704;10.004;2024-01-30T12:14:26;12.43;;;8.85;;
45065;SDS011;30830;53.704;10.004;2024-01-30T12:16:52;13.95;;;9.63;;
45065;SDS011;30830;53.704;10.004;2024-01-30T12:19:21;16.20;;;9.60;;
45065;SDS011;30830;53.704;10.004;2024-01-30T12:21:53;11.35;;;8.48;;
45065;SDS011;30830;53.704;10.004;2024-01-30T12:24:20;15.27;;;9.05;;
45065;SDS011;30830;53.704;10.004;2024-01-30T12:26:45;13.27;;;9.50;;
45065;SDS011;30830;53.704;10.004;2024-01-30T12:29:11;10.73;;;8.85;;
45065;SDS011;30830;53.704;10.004;2024-01-30T12:31:36;11.48;;;9.05;;
45065;SDS011;30830;53.704;10.004;2024-01-30T12:34:02;15.45;;;9.20;;
45065;SDS011;30830;53.704;10.004;2024-01-30T12:36:28;13.70;;;8.95;;
45065;SDS011;30830;53.704;10.004;2024-01-30T12:38:55;10.65;;;7.70;;
45065;SDS011;30830;53.704;10.004;2024-01-30T12:41:22;10.27;;;7.43;;
45065;SDS011;30830;53.704;10.004;2024-01-30T12:43:53;12.93;;;8.68;;
45065;SDS011;30830;53.704;10.004;2024-01-30T12:46:19;11.07;;;8.43;;
45065;SDS011;30830;53.704;10.004;2024-01-30T12:48:44;19.67;;;11.55;;
45065;SDS011;30830;53.704;10.004;2024-01-30T12:51:10;11.50;;;7.35;;
45065;SDS011;30830;53.704;10.004;2024-01-30T12:53:35;12.55;;;7.95;;
45065;SDS011;30830;53.704;10.004;2024-01-30T12:56:01;10.63;;;7.70;;
45065;SDS011;30830;53.704;10.004;2024-01-30T12:58:27;10.82;;;7.78;;
45065;SDS011;30830;53.704;10.004;2024-01-30T13:00:52;11.25;;;7.78;;
45065;SDS011;30830;53.704;10.004;2024-01-30T13:03:19;11.40;;;7.78;;
45065;SDS011;30830;53.704;10.004;2024-01-30T13:05:44;11.68;;;7.70;;
45065;SDS011;30830;53.704;10.004;2024-01-30T13:08:10;11.45;;;7.53;;
45065;SDS011;30830;53.704;10.004;2024-01-30T13:10:35;12.13;;;7.70;;
45065;SDS011;30830;53.704;10.004;2024-01-30T13:13:01;9.65;;;7.68;;
45065;SDS011;30830;53.704;10.004;2024-01-30T13:15:27;12.32;;;7.80;;
45065;SDS011;30830;53.704;10.004;2024-01-30T13:17:54;11.77;;;7.82;;
45065;SDS011;30830;53.704;10.004;2024-01-30T13:20:19;10.65;;;8.23;;
45065;SDS011;30830;53.704;10.004;2024-01-30T13:22:47;10.10;;;7.05;;
45065;SDS011;30830;53.704;10.004;2024-01-30T13:25:14;10.10;;;6.88;;
45065;SDS011;30830;53.704;10.004;2024-01-30T13:27:40;13.73;;;7.78;;
45065;SDS011;30830;53.704;10.004;2024-01-30T13:30:06;11.02;;;8.00;;
45065;SDS011;30830;53.704;10.004;2024-01-30T13:32:36;10.55;;;6.97;;
45065;SDS011;30830;53.704;10.004;2024-01-30T13:35:02;9.95;;;7.35;;
45065;SDS011;30830;53.704;10.004;2024-01-30T13:37:28;16.95;;;7.68;;
45065;SDS011;30830;53.704;10.004;2024-01-30T13:39:54;11.52;;;7.45;;
45065;SDS011;30830;53.704;10.004;2024-01-30T13:42:21;14.07;;;8.63;;
45065;SDS011;30830;53.704;10.004;2024-01-30T13:44:46;11.73;;;7.88;;
45065;SDS011;30830;53.704;10.004;2024-01-30T13:47:12;9.80;;;6.95;;
45065;SDS011;30830;53.704;10.004;2024-01-30T13:49:38;10.30;;;7.18;;
45065;SDS011;30830;53.704;10.004;2024-01-30T13:52:03;11.80;;;7.25;;
45065;SDS011;30830;53.704;10.004;2024-01-30T13:54:29;9.07;;;7.00;;
45065;SDS011;30830;53.704;10.004;2024-01-30T13:56:55;14.18;;;8.20;;
45065;SDS011;30830;53.704;10.004;2024-01-30T13:59:21;21.17;;;13.25;;
45065;SDS011;30830;53.704;10.004;2024-01-30T14:01:49;26.13;;;14.38;;
45065;SDS011;30830;53.704;10.004;2024-01-30T14:04:15;11.80;;;9.05;;
45065;SDS011;30830;53.704;10.004;2024-01-30T14:06:40;8.85;;;7.13;;
45065;SDS011;30830;53.704;10.004;2024-01-30T14:09:06;12.15;;;8.23;;
45065;SDS011;30830;53.704;10.004;2024-01-30T14:11:32;10.43;;;7.63;;
45065;SDS011;30830;53.704;10.004;2024-01-30T14:13:57;14.40;;;9.45;;
45065;SDS011;30830;53.704;10.004;2024-01-30T14:16:23;12.55;;;9.30;;
45065;SDS011;30830;53.704;10.004;2024-01-30T14:18:49;14.25;;;10.65;;
45065;SDS011;30830;53.704;10.004;2024-01-30T14:21:15;15.57;;;12.30;;
45065;SDS011;30830;53.704;10.004;2024-01-30T14:23:40;15.88;;;11.35;;